Time;durP1;ratioP1;P1;durP2;ratioP2;P2;SDS_P1;SDS_P2;PMS_P1;PMS_P2;Temp;Humidity;BMP_temperature;BMP_pressure;BME280_temperature;BME280_humidity;BME280_pressure;Samples;Min_cycle;Max_cycle;Signal;HPM_P1;HPM_P2
2021/10/02 00:35:37;;;;;;;8.23;6.20;;;;;;;11.72;80.19;95648.22;5069016;28;20208;-77
2021/10/02 00:46:01;;;;;;;6.10;4.93;;;;;;;11.62;80.64;95658.69;5040737;28;20180;-80
2021/10/02 00:48:26;;;;;;;5.57;4.97;;;;;;;11.59;80.54;95661.63;5071127;28;20210;-78
2021/10/02 00:50:57;;;;;;;7.73;5.60;;;;;;;11.56;80.94;95665.31;5037933;28;20192;-79
2021/10/02 00:53:23;;;;;;;6.17;4.80;;;;;;;11.54;80.62;95651.66;5053797;28;20178;-79
2021/10/02 00:55:50;;;;;;;6.17;5.03;;;;;;;11.52;80.66;95651.00;5054358;28;20170;-76
2021/10/02 00:58:16;;;;;;;5.73;5.03;;;;;;;11.51;80.75;95645.94;5054226;28;20662;-77
2021/10/02 01:00:42;;;;;;;9.40;5.17;;;;;;;11.49;80.67;95650.50;5055232;28;20177;-77
2021/10/02 01:03:26;;;;;;;7.40;4.93;;;;;;;11.44;80.74;95640.53;5052856;28;20181;-77
2021/10/02 01:06:22;;;;;;;8.27;5.13;;;;;;;11.46;80.13;95638.59;5052537;28;20739;-77
2021/10/02 01:09:04;;;;;;;6.37;4.63;;;;;;;11.50;78.72;95633.91;5053971;28;20240;-77
2021/10/02 01:12:14;;;;;;;5.80;4.20;;;;;;;11.48;78.52;95635.81;5052672;28;20184;-77
2021/10/02 01:14:50;;;;;;;6.90;4.33;;;;;;;11.48;78.17;95648.81;4991446;28;20186;-77
2021/10/02 01:17:24;;;;;;;5.33;3.50;;;;;;;11.49;77.65;95646.09;5027989;28;20768;-77
2021/10/02 01:19:58;;;;;;;4.53;3.97;;;;;;;11.55;76.22;95652.47;5053271;28;20170;-76
2021/10/02 01:22:35;;;;;;;4.47;3.30;;;;;;;11.58;75.85;95645.19;5054092;28;20712;-79
2021/10/02 01:25:10;;;;;;;3.80;3.40;;;;;;;11.59;74.94;95639.03;5054210;28;20177;-79
2021/10/02 01:27:54;;;;;;;4.57;3.50;;;;;;;11.59;74.56;95633.81;5053732;28;20213;-79
2021/10/02 01:30:37;;;;;;;5.37;3.23;;;;;;;11.60;74.70;95625.03;5053799;28;20230;-79
2021/10/02 01:33:18;;;;;;;3.73;3.27;;;;;;;11.59;74.54;95626.03;5052403;28;20677;-78
2021/10/02 01:36:18;;;;;;;5.67;3.63;;;;;;;11.58;74.44;95608.78;5052760;28;20272;-78
2021/10/02 01:49:31;;;;;;;9.03;3.43;;;;;;;11.50;76.17;95602.72;5039320;28;20712;-78
2021/10/02 01:51:58;;;;;;;5.57;3.67;;;;;;;11.46;76.29;95606.56;5054801;28;20574;-79
2021/10/02 01:54:23;;;;;;;5.37;3.40;;;;;;;11.45;76.10;95610.94;5052895;28;20184;-78
2021/10/02 01:56:49;;;;;;;7.63;4.00;;;;;;;11.45;76.55;95613.56;5036719;28;20285;-79
2021/10/02 01:59:16;;;;;;;4.57;4.13;;;;;;;11.45;76.20;95610.94;5053335;28;20210;-79
2021/10/02 02:01:44;;;;;;;4.23;3.70;;;;;;;11.43;76.88;95615.50;5053649;28;20244;-78
2021/10/02 02:04:10;;;;;;;4.53;3.37;;;;;;;11.42;77.07;95611.25;5052418;28;20196;-79
2021/10/02 02:06:36;;;;;;;4.50;3.80;;;;;;;11.40;77.12;95613.19;5053374;28;20204;-79
2021/10/02 02:09:01;;;;;;;6.93;3.60;;;;;;;11.39;77.35;95611.53;5053063;28;20217;-79
2021/10/02 02:11:27;;;;;;;5.33;4.03;;;;;;;11.37;77.28;95597.88;5019915;28;20803;-79
2021/10/02 02:13:54;;;;;;;4.53;3.93;;;;;;;11.36;77.54;95619.66;5052531;28;20209;-79
2021/10/02 02:16:20;;;;;;;5.63;3.40;;;;;;;11.29;77.71;95605.63;5053039;28;20189;-79
2021/10/02 02:18:47;;;;;;;5.83;3.97;;;;;;;11.27;77.99;95617.97;5069574;28;20177;-78
2021/10/02 02:21:12;;;;;;;5.03;4.43;;;;;;;11.23;78.46;95612.25;5053020;28;20213;-78
2021/10/02 02:23:38;;;;;;;5.13;4.23;;;;;;;11.25;78.54;95604.31;5051788;28;20650;-79
2021/10/02 02:26:05;;;;;;;5.07;4.03;;;;;;;11.22;78.20;95600.22;5052901;28;20189;-79
2021/10/02 02:28:32;;;;;;;7.10;5.00;;;;;;;11.21;78.47;95592.56;5052250;28;20289;-78
2021/10/02 02:30:58;;;;;;;7.30;4.60;;;;;;;11.26;78.30;95585.94;5052360;28;20212;-78
2021/10/02 02:33:24;;;;;;;6.37;4.50;;;;;;;11.20;78.51;95588.31;5051886;28;20660;-78
2021/10/02 02:35:49;;;;;;;5.73;3.90;;;;;;;11.15;78.99;95588.78;5051546;28;20185;-76
2021/10/02 02:38:15;;;;;;;5.43;4.00;;;;;;;11.11;79.11;95587.44;5035281;28;20193;-78
2021/10/02 02:40:40;;;;;;;6.70;4.00;;;;;;;11.09;78.94;95585.97;5051849;28;20174;-78
2021/10/02 02:43:08;;;;;;;5.43;4.30;;;;;;;11.07;78.83;95576.53;5018473;28;20197;-78
2021/10/02 02:45:33;;;;;;;6.73;4.47;;;;;;;11.01;79.90;95586.72;5034769;28;20269;-78
2021/10/02 02:48:10;;;;;;;12.37;4.27;;;;;;;11.00;80.07;95579.88;5034929;28;20300;-78
2021/10/02 02:50:49;;;;;;;5.90;4.43;;;;;;;10.99;79.98;95580.84;5052146;28;20213;-78
2021/10/02 02:53:33;;;;;;;4.93;4.00;;;;;;;10.94;80.75;95563.09;5035636;28;20185;-78
2021/10/02 02:56:07;;;;;;;7.07;4.50;;;;;;;10.90;81.18;95563.56;5052000;28;20622;-78
2021/10/02 02:58:33;;;;;;;7.63;4.00;;;;;;;10.87;80.95;95575.06;5052316;28;20216;-78
2021/10/02 03:01:01;;;;;;;8.03;4.60;;;;;;;10.85;80.80;95571.78;5051956;28;20182;-79
2021/10/02 03:03:30;;;;;;;4.53;3.97;;;;;;;10.81;81.10;95557.47;5051731;28;20185;-78
2021/10/02 03:06:03;;;;;;;5.87;4.43;;;;;;;10.78;81.00;95563.78;5051180;28;20186;-78
2021/10/02 03:08:35;;;;;;;5.47;4.53;;;;;;;10.77;81.14;95566.50;5051412;28;20218;-78
2021/10/02 03:11:02;;;;;;;6.23;3.90;;;;;;;10.76;81.39;95567.47;5051472;28;20244;-78
2021/10/02 03:13:30;;;;;;;6.47;4.47;;;;;;;10.75;81.42;95563.25;5051263;28;20181;-79
2021/10/02 03:15:56;;;;;;;7.17;3.57;;;;;;;10.74;81.43;95564.22;5051063;28;20174;-78
2021/10/02 03:18:23;;;;;;;4.93;3.63;;;;;;;10.72;81.52;95563.56;5052443;28;20212;-79
2021/10/02 03:20:50;;;;;;;9.40;4.47;;;;;;;10.69;81.63;95563.84;5051231;28;20320;-78
2021/10/02 03:23:17;;;;;;;5.57;4.07;;;;;;;10.69;81.11;95561.22;5051133;28;20178;-78
2021/10/02 03:25:42;;;;;;;6.90;3.57;;;;;;;10.67;81.16;95560.56;5050733;28;20543;-78
2021/10/02 03:28:08;;;;;;;5.30;3.70;;;;;;;10.68;80.91;95564.81;5034382;28;20213;-79
2021/10/02 03:30:33;;;;;;;5.03;3.60;;;;;;;10.67;80.72;95564.00;5052278;28;20174;-78
2021/10/02 03:32:59;;;;;;;6.67;3.57;;;;;;;10.68;80.62;95563.03;5032620;28;20178;-77
2021/10/02 03:35:25;;;;;;;5.63;3.67;;;;;;;10.72;80.16;95563.56;5050709;28;20182;-76
2021/10/02 03:37:50;;;;;;;4.30;3.90;;;;;;;10.71;80.08;95567.13;5050041;28;20229;-77
2021/10/02 03:40:17;;;;;;;8.13;5.20;;;;;;;10.70;80.44;95561.13;5050058;28;20185;-76
2021/10/02 03:42:44;;;;;;;6.83;5.13;;;;;;;10.67;80.47;95553.59;5050450;28;20259;-77
2021/10/02 03:45:10;;;;;;;6.60;5.60;;;;;;;10.65;80.50;95558.13;5050326;28;20586;-78
2021/10/02 03:47:36;;;;;;;6.80;4.87;;;;;;;10.64;80.36;95558.28;5050215;28;20201;-78
2021/10/02 03:50:03;;;;;;;7.03;4.67;;;;;;;10.63;80.14;95557.47;5051830;28;20205;-78
2021/10/02 03:52:28;;;;;;;6.23;3.50;;;;;;;10.62;79.96;95557.63;5050569;28;20283;-79
2021/10/02 03:54:53;;;;;;;4.37;3.37;;;;;;;10.63;79.79;95556.66;5050997;28;20568;-78
2021/10/02 03:57:19;;;;;;;6.17;3.47;;;;;;;10.63;79.37;95556.66;5051688;28;20193;-79
2021/10/02 03:59:44;;;;;;;4.27;3.27;;;;;;;10.64;79.25;95555.69;5050612;28;20174;-78
2021/10/02 04:02:09;;;;;;;3.53;2.93;;;;;;;10.67;78.76;95557.97;5051385;28;20198;-76
2021/10/02 04:04:35;;;;;;;3.17;2.87;;;;;;;10.68;78.25;95557.00;5033447;28;20551;-77
2021/10/02 04:07:00;;;;;;;3.50;3.20;;;;;;;10.69;77.94;95561.22;5034721;28;20216;-79
2021/10/02 04:09:26;;;;;;;4.90;3.03;;;;;;;10.82;76.82;95560.88;5053197;28;20230;-78
2021/10/02 04:11:52;;;;;;;4.53;2.90;;;;;;;10.81;76.11;95565.25;5035613;28;20564;-78
2021/10/02 04:14:17;;;;;;;4.40;3.00;;;;;;;10.83;76.04;95559.91;5052345;28;20207;-78
2021/10/02 04:16:42;;;;;;;4.97;2.63;;;;;;;10.85;75.93;95557.97;5033752;28;20199;-78
2021/10/02 04:19:07;;;;;;;3.23;2.57;;;;;;;10.86;75.43;95552.63;5052787;28;20649;-79
2021/10/02 04:21:33;;;;;;;4.10;2.87;;;;;;;10.91;74.49;95566.00;5052007;28;20227;-79
2021/10/02 04:24:00;;;;;;;4.40;2.60;;;;;;;10.89;74.40;95559.34;5033436;28;20204;-77
2021/10/02 04:26:25;;;;;;;3.53;2.73;;;;;;;10.87;74.67;95556.06;5033463;28;20255;-78
2021/10/02 04:28:51;;;;;;;4.70;2.60;;;;;;;10.84;74.83;95549.38;5051326;28;20648;-76
2021/10/02 04:31:16;;;;;;;3.47;2.70;;;;;;;10.82;74.96;95561.69;5034211;28;20181;-78
2021/10/02 04:33:42;;;;;;;3.50;2.80;;;;;;;10.78;75.44;95555.19;5032031;28;20182;-78
2021/10/02 04:36:07;;;;;;;4.30;2.70;;;;;;;10.80;75.15;95558.44;5034303;28;20174;-78
2021/10/02 04:38:32;;;;;;;4.23;2.90;;;;;;;10.75;75.41;95550.25;5034145;28;20703;-78
2021/10/02 04:40:58;;;;;;;2.40;2.20;;;;;;;10.78;75.15;95550.00;5033859;28;20650;-79
2021/10/02 04:43:23;;;;;;;3.40;2.40;;;;;;;10.80;75.41;95552.44;5034016;28;20224;-79
2021/10/02 04:45:49;;;;;;;3.20;2.70;;;;;;;10.78;75.24;95562.97;5033096;28;20436;-77
2021/10/02 04:48:14;;;;;;;3.53;2.70;;;;;;;10.77;75.30;95558.72;5049342;28;20205;-77
2021/10/02 04:50:40;;;;;;;3.80;2.77;;;;;;;10.76;75.60;95555.31;5050548;28;20174;-78
2021/10/02 04:53:05;;;;;;;5.00;3.03;;;;;;;10.72;75.74;95550.56;5050591;28;20174;-76
2021/10/02 04:55:31;;;;;;;4.40;3.20;;;;;;;10.64;76.21;95551.31;5048182;28;20178;-76
2021/10/02 04:57:56;;;;;;;6.00;3.17;;;;;;;10.63;76.44;95551.47;5032613;28;20224;-77
2021/10/02 05:00:21;;;;;;;6.30;3.63;;;;;;;10.62;76.82;95547.22;5032820;28;20174;-77
2021/10/02 05:02:47;;;;;;;4.67;3.03;;;;;;;10.60;77.04;95543.94;5032709;28;20166;-77
2021/10/02 05:05:12;;;;;;;4.63;3.47;;;;;;;10.57;77.05;95536.47;5049728;28;20687;-78
2021/10/02 05:07:37;;;;;;;5.03;3.50;;;;;;;10.55;76.89;95523.63;5032463;28;20202;-78
2021/10/02 05:10:03;;;;;;;6.63;3.47;;;;;;;10.52;77.58;95518.75;5051766;28;20247;-77
2021/10/02 05:12:29;;;;;;;3.47;3.17;;;;;;;10.53;77.40;95516.97;5069440;28;20182;-78
2021/10/02 05:14:54;;;;;;;4.90;3.43;;;;;;;10.53;77.64;95524.75;5035551;28;20185;-77
2021/10/02 05:17:19;;;;;;;4.30;3.60;;;;;;;10.60;77.22;95517.97;5053898;28;20268;-77
2021/10/02 05:19:45;;;;;;;7.63;4.20;;;;;;;10.60;77.28;95510.19;5036075;28;20216;-77
2021/10/02 05:22:11;;;;;;;7.60;4.17;;;;;;;10.74;77.25;95505.28;5035844;28;20178;-77
2021/10/02 05:24:37;;;;;;;5.13;3.90;;;;;;;10.74;76.95;95507.88;5053215;28;20189;-77
2021/10/02 05:27:08;;;;;;;3.90;3.33;;;;;;;10.69;77.28;95507.53;5053474;28;20224;-77
2021/10/02 05:29:34;;;;;;;4.63;3.13;;;;;;;10.72;77.65;95509.00;5052419;28;20209;-77
2021/10/02 05:32:00;;;;;;;4.90;3.97;;;;;;;10.69;77.36;95515.34;5044582;28;20667;-76
2021/10/02 05:34:25;;;;;;;4.40;3.67;;;;;;;10.73;77.25;95510.66;5044795;28;20260;-76
2021/10/02 05:36:51;;;;;;;5.33;4.10;;;;;;;10.70;77.34;95518.75;5044346;28;20197;-75
2021/10/02 05:39:16;;;;;;;4.97;3.23;;;;;;;10.82;76.95;95508.94;5064467;28;20185;-76
2021/10/02 05:41:41;;;;;;;7.37;4.17;;;;;;;10.87;76.45;95512.72;5061089;28;20657;-77
2021/10/02 05:44:06;;;;;;;4.67;3.77;;;;;;;10.87;76.39;95519.69;5036274;28;20243;-76
2021/10/02 05:46:32;;;;;;;5.60;3.83;;;;;;;10.90;76.18;95522.81;5053456;28;20221;-76
2021/10/02 05:48:57;;;;;;;3.33;3.03;;;;;;;10.93;75.80;95514.69;5057840;28;20202;-75
2021/10/02 05:51:24;;;;;;;3.53;3.13;;;;;;;11.01;75.36;95512.16;5021524;28;20204;-75
2021/10/02 05:53:49;;;;;;;3.47;3.10;;;;;;;11.05;74.64;95515.28;5028921;28;20174;-75
2021/10/02 05:56:15;;;;;;;4.77;3.50;;;;;;;11.10;75.02;95518.25;5049072;28;20181;-77
2021/10/02 05:58:40;;;;;;;5.47;3.63;;;;;;;11.13;74.23;95517.13;5067531;28;20185;-76
2021/10/02 06:01:05;;;;;;;4.67;3.37;;;;;;;11.16;73.92;95511.63;5066523;28;20174;-77
2021/10/02 06:03:31;;;;;;;6.67;3.57;;;;;;;11.17;73.65;95513.25;5038297;28;20200;-78
2021/10/02 06:06:00;;;;;;;4.77;2.90;;;;;;;11.16;73.16;95509.03;5039502;28;20182;-75
2021/10/02 06:08:25;;;;;;;4.80;3.20;;;;;;;11.17;72.95;95516.69;5035762;28;20626;-76
2021/10/02 06:10:50;;;;;;;4.20;2.87;;;;;;;11.22;72.93;95516.19;5035693;28;20189;-76
2021/10/02 06:13:16;;;;;;;3.80;2.60;;;;;;;11.25;72.63;95518.53;5053713;28;20185;-74
2021/10/02 06:15:41;;;;;;;5.20;2.90;;;;;;;11.26;71.95;95520.97;5052678;28;20231;-77
2021/10/02 06:18:06;;;;;;;6.17;3.37;;;;;;;11.28;71.73;95519.03;5035596;28;20655;-74
2021/10/02 06:20:32;;;;;;;3.37;2.90;;;;;;;11.36;71.77;95518.25;5053435;28;20188;-73
2021/10/02 06:22:57;;;;;;;3.73;2.63;;;;;;;11.39;71.82;95522.31;5052107;28;20182;-74
2021/10/02 06:25:22;;;;;;;6.87;3.80;;;;;;;11.35;72.66;95522.66;5051774;28;20181;-75
2021/10/02 06:27:48;;;;;;;4.93;3.63;;;;;;;11.35;73.09;95527.84;5052824;28;20251;-76
2021/10/02 06:30:13;;;;;;;4.43;3.27;;;;;;;11.39;73.37;95532.72;5035093;28;20182;-77
2021/10/02 06:32:38;;;;;;;4.07;3.30;;;;;;;11.34;74.09;95525.41;5034930;28;20260;-78
2021/10/02 06:35:05;;;;;;;4.13;3.73;;;;;;;11.45;73.60;95522.53;5034192;28;20591;-78
2021/10/02 06:37:30;;;;;;;5.23;3.87;;;;;;;11.51;73.47;95518.53;5035068;28;20236;-77
2021/10/02 06:39:56;;;;;;;4.37;3.53;;;;;;;11.44;74.02;95520.91;5018356;28;20186;-78
2021/10/02 06:42:21;;;;;;;4.80;3.70;;;;;;;11.49;73.50;95530.88;5042981;28;20204;-78
2021/10/02 06:44:46;;;;;;;5.03;3.70;;;;;;;11.57;73.64;95531.72;5049560;28;20178;-78
2021/10/02 06:47:11;;;;;;;5.47;3.43;;;;;;;11.67;73.06;95530.81;5050409;28;20210;-78
2021/10/02 06:49:37;;;;;;;5.90;3.10;;;;;;;11.76;72.15;95532.47;5053268;28;20217;-79
2021/10/02 06:52:02;;;;;;;6.00;3.20;;;;;;;11.75;72.30;95533.41;5054135;28;20186;-78
2021/10/02 06:54:28;;;;;;;4.80;3.40;;;;;;;11.79;71.91;95545.97;5055716;28;20187;-78
2021/10/02 06:56:53;;;;;;;5.47;3.23;;;;;;;11.89;71.66;95549.31;5054482;28;20742;-78
2021/10/02 06:59:19;;;;;;;5.47;3.73;;;;;;;11.90;71.61;95539.72;5054000;28;20174;-79
2021/10/02 07:01:44;;;;;;;3.93;2.83;;;;;;;12.04;70.19;95528.72;5053948;28;20177;-79
2021/10/02 07:04:09;;;;;;;5.10;3.37;;;;;;;12.09;70.55;95531.66;5053958;28;20684;-78
2021/10/02 07:06:35;;;;;;;4.40;3.13;;;;;;;12.15;70.40;95531.03;5053483;28;20204;-78
2021/10/02 07:09:00;;;;;;;5.43;3.20;;;;;;;12.13;70.76;95526.97;5036771;28;20197;-79
2021/10/02 07:11:26;;;;;;;7.40;3.50;;;;;;;12.02;71.19;95535.88;5054231;28;20260;-78
2021/10/02 07:13:51;;;;;;;4.57;3.67;;;;;;;11.80;71.99;95529.44;5052701;28;20193;-79
2021/10/02 07:16:16;;;;;;;4.83;3.70;;;;;;;11.90;71.50;95534.50;5052737;28;20257;-78
2021/10/02 07:18:42;;;;;;;3.90;3.53;;;;;;;11.91;71.78;95543.94;5052481;28;20193;-77
2021/10/02 07:21:07;;;;;;;5.63;4.10;;;;;;;11.93;71.92;95531.63;5035807;28;20612;-78
2021/10/02 07:23:34;;;;;;;4.20;3.80;;;;;;;11.98;71.70;95528.53;5051594;28;20178;-78
2021/10/02 07:26:00;;;;;;;7.27;3.60;;;;;;;12.14;70.97;95526.00;5051775;28;20671;-78
2021/10/02 07:28:25;;;;;;;4.83;3.80;;;;;;;12.14;70.86;95534.63;5035781;28;20221;-78
2021/10/02 07:30:51;;;;;;;5.37;3.40;;;;;;;12.23;70.61;95532.03;5053101;28;20182;-80
2021/10/02 07:33:16;;;;;;;5.17;3.67;;;;;;;12.29;70.15;95531.41;5052377;28;20234;-79
2021/10/02 07:35:42;;;;;;;4.53;3.20;;;;;;;12.33;68.97;95532.72;5043272;28;20185;-79
2021/10/02 07:38:07;;;;;;;5.23;3.20;;;;;;;12.45;68.52;95523.63;5042580;28;20303;-79
2021/10/02 07:40:32;;;;;;;4.37;3.17;;;;;;;12.45;68.62;95528.84;5043481;28;20189;-77
2021/10/02 07:43:01;;;;;;;4.77;2.60;;;;;;;12.55;67.58;95523.50;5022451;28;20193;-78
2021/10/02 07:45:27;;;;;;;3.77;2.63;;;;;;;12.60;66.99;95521.22;5032323;28;20181;-78
2021/10/02 07:47:54;;;;;;;4.13;3.07;;;;;;;12.61;67.45;95521.06;5032873;28;20197;-77
2021/10/02 07:50:20;;;;;;;5.90;3.10;;;;;;;12.71;67.34;95519.09;5015182;28;20192;-77
2021/10/02 07:52:45;;;;;;;5.53;3.20;;;;;;;12.74;67.35;95518.81;5016494;28;20185;-77
2021/10/02 07:55:12;;;;;;;3.77;2.60;;;;;;;12.82;66.38;95525.00;5032408;28;20209;-78
2021/10/02 07:57:40;;;;;;;5.17;2.83;;;;;;;12.90;65.70;95525.84;5050800;28;20209;-77
2021/10/02 08:00:07;;;;;;;3.30;2.67;;;;;;;12.94;66.10;95527.13;5046474;28;20549;-78
2021/10/02 08:02:33;;;;;;;4.40;2.67;;;;;;;13.00;66.35;95526.47;5050607;28;20473;-78
2021/10/02 08:04:59;;;;;;;7.57;3.20;;;;;;;13.02;66.04;95529.72;5035295;28;20250;-80
2021/10/02 08:07:24;;;;;;;3.53;3.10;;;;;;;13.21;65.67;95528.63;5028389;28;20597;-79
2021/10/02 08:09:52;;;;;;;3.83;3.10;;;;;;;13.16;65.88;95536.06;5050140;28;20212;-79
2021/10/02 08:12:17;;;;;;;3.07;2.53;;;;;;;13.22;65.79;95537.25;5069524;28;20993;-81
2021/10/02 08:14:43;;;;;;;3.70;2.73;;;;;;;13.36;65.56;95533.19;5041234;28;20261;-80
2021/10/02 08:17:08;;;;;;;3.40;2.70;;;;;;;13.38;65.70;95534.63;5057041;28;20202;-78
2021/10/02 08:19:34;;;;;;;4.97;3.00;;;;;;;13.52;65.45;95523.53;5017842;28;20239;-78
2021/10/02 08:22:02;;;;;;;4.10;2.70;;;;;;;13.58;65.60;95528.06;5033247;28;20182;-80
2021/10/02 08:24:31;;;;;;;3.83;2.97;;;;;;;13.65;65.55;95533.44;5033877;28;20193;-79
2021/10/02 08:26:56;;;;;;;4.13;2.80;;;;;;;13.86;64.34;95527.66;5018462;28;20209;-80
2021/10/02 08:29:22;;;;;;;5.27;2.63;;;;;;;13.86;63.31;95520.66;5034164;28;20210;-79
2021/10/02 08:31:47;;;;;;;3.53;2.80;;;;;;;13.89;62.71;95516.91;5033785;28;20645;-80
2021/10/02 08:34:13;;;;;;;3.53;2.33;;;;;;;14.12;62.42;95516.97;5031688;28;20711;-79
2021/10/02 08:36:38;;;;;;;4.77;2.57;;;;;;;14.22;63.07;95509.72;5033163;28;20202;-80
2021/10/02 08:39:03;;;;;;;3.47;2.50;;;;;;;14.36;62.53;95518.66;5016791;28;20276;-78
2021/10/02 08:41:29;;;;;;;3.80;2.37;;;;;;;14.38;62.79;95514.88;5016616;28;20634;-79
2021/10/02 08:43:54;;;;;;;2.90;2.37;;;;;;;14.44;61.30;95521.22;5032334;28;20186;-79
2021/10/02 08:46:20;;;;;;;4.20;2.20;;;;;;;14.55;60.90;95513.03;5019866;28;20208;-79
2021/10/02 08:49:07;;;;;;;5.20;2.77;;;;;;;14.65;60.20;95508.38;5037022;28;20197;-80
2021/10/02 08:51:32;;;;;;;3.27;2.30;;;;;;;14.57;60.74;95511.03;5037778;28;20177;-80
2021/10/02 08:53:58;;;;;;;3.50;2.57;;;;;;;14.73;60.88;95510.13;5021448;28;20177;-80
2021/10/02 08:56:23;;;;;;;6.20;2.67;;;;;;;14.82;60.75;95514.31;5021942;28;20281;-80
2021/10/02 08:58:49;;;;;;;3.53;2.30;;;;;;;14.90;60.42;95516.88;5037825;28;20182;-80
2021/10/02 09:01:14;;;;;;;3.70;2.23;;;;;;;14.96;60.45;95500.50;5020639;28;20178;-80
2021/10/02 09:03:40;;;;;;;4.80;2.50;;;;;;;15.14;60.43;95492.34;5038386;28;20234;-80
2021/10/02 09:06:06;;;;;;;3.37;2.40;;;;;;;15.19;59.42;95497.00;5021902;28;20208;-80
2021/10/02 09:08:31;;;;;;;4.47;2.40;;;;;;;15.32;60.45;95496.44;5021747;28;20274;-79
2021/10/02 09:10:56;;;;;;;3.00;2.40;;;;;;;15.41;60.18;95495.34;5021127;28;20205;-79
2021/10/02 09:13:22;;;;;;;6.23;2.50;;;;;;;15.51;59.86;95491.47;5037740;28;20186;-81
2021/10/02 09:15:47;;;;;;;4.57;2.67;;;;;;;15.67;58.31;95487.91;5027591;28;20529;-78
2021/10/02 09:18:13;;;;;;;2.93;2.27;;;;;;;15.55;57.99;95478.88;5028780;28;20781;-77
2021/10/02 09:20:38;;;;;;;5.63;2.45;;;;;;;15.70;58.35;95473.66;5045117;28;20178;-79
2021/10/02 09:23:06;;;;;;;2.63;2.03;;;;;;;15.86;58.00;95483.94;5027544;28;20622;-78
2021/10/02 09:25:33;;;;;;;4.88;2.72;;;;;;;15.90;58.01;95479.94;5039268;28;20174;-79
2021/10/02 09:28:03;;;;;;;3.25;2.35;;;;;;;15.91;57.64;95481.59;5021074;28;20288;-78
2021/10/02 09:30:29;;;;;;;5.88;2.92;;;;;;;15.93;57.23;95477.00;5055012;28;20231;-78
2021/10/02 09:33:02;;;;;;;4.15;2.70;;;;;;;16.06;56.50;95461.41;5020909;28;20185;-79
2021/10/02 09:35:27;;;;;;;2.55;2.35;;;;;;;16.13;57.78;95467.56;5037160;28;20633;-78
2021/10/02 09:37:54;;;;;;;3.72;2.58;;;;;;;16.21;56.61;95466.63;5037728;28;20197;-79
2021/10/02 09:40:22;;;;;;;2.95;2.55;;;;;;;16.28;56.71;95471.97;5037836;28;20260;-78
2021/10/02 09:42:50;;;;;;;4.97;2.40;;;;;;;16.22;57.05;95455.16;5038564;28;20669;-78
2021/10/02 09:45:25;;;;;;;4.15;2.50;;;;;;;16.41;56.23;95464.22;5037963;28;20866;-78
2021/10/02 09:47:56;;;;;;;4.38;2.30;;;;;;;16.49;56.74;95455.44;5037777;28;20676;-78
2021/10/02 09:50:26;;;;;;;3.65;2.50;;;;;;;16.57;56.35;95455.31;5021189;28;20189;-79
2021/10/02 09:52:57;;;;;;;4.25;2.85;;;;;;;16.54;55.62;95448.66;5055254;28;20178;-78
2021/10/02 09:55:29;;;;;;;3.28;2.85;;;;;;;16.66;55.78;95446.34;5037002;28;20208;-78
2021/10/02 09:57:59;;;;;;;4.07;2.30;;;;;;;16.79;55.68;95453.56;5037147;28;20198;-79
2021/10/02 10:00:31;;;;;;;4.63;2.10;;;;;;;16.88;55.03;95448.00;5037394;28;20170;-80
2021/10/02 10:02:57;;;;;;;6.32;2.25;;;;;;;17.04;54.50;95446.91;5021149;28;20185;-79
2021/10/02 10:05:33;;;;;;;2.50;2.10;;;;;;;17.08;54.75;95450.78;5054979;28;20269;-79
2021/10/02 10:08:01;;;;;;;4.50;2.42;;;;;;;17.12;53.55;95440.69;5037149;28;20676;-78
2021/10/02 10:10:27;;;;;;;2.95;2.00;;;;;;;17.12;54.17;95436.25;5021266;28;20198;-78
2021/10/02 10:12:53;;;;;;;3.50;2.25;;;;;;;17.13;54.24;95434.44;5030441;28;20192;-79
2021/10/02 10:15:28;;;;;;;3.35;2.20;;;;;;;17.27;54.19;95426.50;5055293;28;20178;-78
2021/10/02 10:17:53;;;;;;;4.32;2.10;;;;;;;17.40;53.86;95430.19;5037934;28;20288;-79
2021/10/02 10:20:19;;;;;;;3.90;2.38;;;;;;;17.52;53.22;95411.09;5056080;28;20169;-79
2021/10/02 10:22:55;;;;;;;4.72;2.20;;;;;;;17.57;52.97;95407.88;5055396;28;20525;-78
2021/10/02 10:25:21;;;;;;;3.72;2.53;;;;;;;17.69;52.55;95405.53;5038237;28;20183;-79
2021/10/02 10:27:47;;;;;;;3.03;2.08;;;;;;;17.85;51.26;95401.81;5038862;28;20197;-78
2021/10/02 10:30:18;;;;;;;4.18;2.58;;;;;;;17.71;52.20;95408.81;5055477;28;20185;-78
2021/10/02 10:32:58;;;;;;;2.42;2.20;;;;;;;17.67;52.12;95395.22;5055113;28;20209;-80
2021/10/02 10:35:26;;;;;;;3.17;2.30;;;;;;;17.87;50.79;95390.09;5072523;28;20215;-79
2021/10/02 10:37:51;;;;;;;2.63;2.42;;;;;;;17.82;51.47;95389.84;5038276;28;20197;-79
2021/10/02 10:40:17;;;;;;;3.05;2.75;;;;;;;17.95;52.32;95394.38;5055439;28;20670;-78
2021/10/02 10:42:42;;;;;;;2.67;2.28;;;;;;;18.02;51.89;95390.75;5038369;28;20733;-80
2021/10/02 10:45:08;;;;;;;3.50;2.75;;;;;;;18.02;52.16;95389.91;5037984;28;20169;-79
2021/10/02 10:47:34;;;;;;;5.03;2.53;;;;;;;17.83;53.06;95392.28;5054933;28;20201;-80
2021/10/02 10:49:59;;;;;;;2.65;2.20;;;;;;;17.86;53.04;95392.91;5039532;28;20217;-78
2021/10/02 10:52:24;;;;;;;4.45;2.88;;;;;;;17.86;54.35;95390.28;5040185;28;20188;-79
2021/10/02 10:54:52;;;;;;;3.25;2.53;;;;;;;17.81;54.42;95393.50;5039514;28;20205;-79
2021/10/02 10:57:37;;;;;;;3.15;2.50;;;;;;;17.77;50.39;95387.81;5056775;28;20193;-79
2021/10/02 11:00:08;;;;;;;3.85;2.50;;;;;;;18.13;49.98;95381.47;5039874;28;20272;-79
2021/10/02 11:02:45;;;;;;;7.40;2.97;;;;;;;18.18;51.89;95379.06;5039286;28;20689;-78
2021/10/02 11:05:36;;;;;;;3.90;2.50;;;;;;;18.09;51.56;95377.63;5073224;28;20230;-78
2021/10/02 11:08:03;;;;;;;3.55;2.40;;;;;;;17.76;48.91;95370.44;5074231;28;20193;-78
2021/10/02 11:10:40;;;;;;;2.90;2.35;;;;;;;17.92;48.71;95368.47;5057357;28;20177;-79
2021/10/02 11:13:06;;;;;;;2.78;2.35;;;;;;;18.16;48.01;95375.81;5074338;28;20636;-79
2021/10/02 11:15:31;;;;;;;2.58;2.30;;;;;;;18.20;49.67;95369.16;5055841;28;20192;-78
2021/10/02 11:17:56;;;;;;;11.20;3.00;;;;;;;18.43;50.33;95371.41;5074172;28;20634;-78
2021/10/02 11:20:37;;;;;;;3.00;2.35;;;;;;;18.71;50.74;95373.09;5074018;28;20189;-77
2021/10/02 11:23:40;;;;;;;2.92;2.60;;;;;;;18.70;50.17;95371.47;5055709;28;20174;-79
2021/10/02 11:26:25;;;;;;;3.38;2.40;;;;;;;18.54;50.25;95359.50;5055388;28;20556;-81
2021/10/02 11:28:59;;;;;;;4.70;2.70;;;;;;;18.66;49.74;95352.66;5054847;28;20193;-79
2021/10/02 11:31:25;;;;;;;2.70;2.50;;;;;;;18.69;48.59;95336.47;5053498;28;20176;-77
2021/10/02 11:33:53;;;;;;;2.33;2.10;;;;;;;18.91;45.15;95337.09;5058587;28;20242;-79
2021/10/02 11:39:16;;;;;;;5.30;3.60;;;;;;;19.08;45.61;95327.75;5074255;28;20657;-79
2021/10/02 11:41:51;;;;;;;5.15;3.05;;;;;;;18.93;45.01;95322.69;5056325;28;20177;-79
2021/10/02 11:44:21;;;;;;;3.38;2.95;;;;;;;18.83;44.29;95318.88;5054916;28;20679;-79
2021/10/02 11:46:46;;;;;;;3.20;2.55;;;;;;;18.65;44.70;95322.94;5072634;28;20272;-79
2021/10/02 11:49:17;;;;;;;3.22;2.30;;;;;;;18.84;44.72;95321.28;5055717;28;20317;-79
2021/10/02 11:51:55;;;;;;;2.67;2.00;;;;;;;18.74;42.49;95310.38;5053913;28;20184;-78
2021/10/02 11:54:21;;;;;;;3.83;2.10;;;;;;;18.96;43.23;95297.78;5054598;28;20649;-78
2021/10/02 11:57:06;;;;;;;3.25;2.30;;;;;;;19.10;42.86;95291.50;5072794;28;20203;-79
2021/10/02 11:59:31;;;;;;;4.80;2.40;;;;;;;19.17;42.04;95288.81;5073985;28;20218;-79
2021/10/02 12:02:02;;;;;;;2.50;2.17;;;;;;;19.02;41.51;95296.16;5055465;28;20169;-78
2021/10/02 12:04:28;;;;;;;2.58;2.30;;;;;;;18.99;43.11;95286.84;5055050;28;20234;-79
2021/10/02 12:06:53;;;;;;;3.70;1.92;;;;;;;18.94;42.91;95286.66;5055659;28;20204;-79
2021/10/02 12:09:18;;;;;;;2.33;2.13;;;;;;;19.08;42.85;95284.81;5073821;28;20200;-79
2021/10/02 12:11:49;;;;;;;3.05;2.13;;;;;;;19.11;42.25;95276.50;5054682;28;20173;-79
2021/10/02 12:14:22;;;;;;;3.08;2.30;;;;;;;18.81;43.32;95273.53;5053766;28;20175;-78
2021/10/02 12:16:53;;;;;;;3.25;2.40;;;;;;;18.96;42.78;95271.47;5037900;28;20197;-79
2021/10/02 12:19:21;;;;;;;2.45;2.20;;;;;;;19.13;43.18;95263.94;5055419;28;20256;-79
2021/10/02 12:21:56;;;;;;;4.05;2.10;;;;;;;19.27;43.38;95260.25;5043002;28;20177;-78
2021/10/02 12:24:24;;;;;;;2.60;2.05;;;;;;;19.49;43.62;95260.78;5058462;28;20183;-78
2021/10/02 12:27:10;;;;;;;2.40;2.20;;;;;;;19.76;43.35;95246.47;5076770;28;20185;-78
2021/10/02 12:29:41;;;;;;;4.57;2.22;;;;;;;20.07;42.88;95245.69;5076656;28;20286;-79
2021/10/02 12:32:08;;;;;;;2.70;2.38;;;;;;;20.14;42.49;95244.81;5059193;28;20256;-78
2021/10/02 12:34:45;;;;;;;2.97;2.47;;;;;;;20.31;42.03;95232.69;5075702;28;20259;-79